A11 weather

Pinjarra Skydiving Airstrip
Pinjarra, Western Australia, Australia

Public forecast

Using degrees Celsius for public forecast. Weather courtesy of forecast.io.

Closest aviation weather report (METAR) to Pinjarra Skydiving Airstrip

Closest report is Perth Jandakot Airport, 34.2 nm (63.3 km) N. Retrieved 2019/10/23 03:30 UTC (6 minutes ago):

YPJT 230330Z AUTO 29014KT 9999 // SCT028 OVC039 22/14 Q1017

Closest aviation forecast (TAF) to Pinjarra Skydiving Airstrip

Closest forecast is Perth Jandakot Airport, 34.2 nm (63.3 km) N. Retrieved 2019-10-23 00:00 UTC (4 hours ago):

TAF YPJT 222244Z 2300/2318 25005KT 9999 SCT020 FM230100 27012KT 9999 SCT030 FM230600 27014KT 9999 -SHRA FEW015 BKN030 FM230900 21012KT 9999 -SHRA BKN030 FM231300 21011KT 9999 NSW SCT030 INTER 2307/2311 4000 SHRA BKN010